Time;durP1;ratioP1;P1;durP2;ratioP2;P2;SDS_P1;SDS_P2;PMS_P1;PMS_P2;Temp;Humidity;BMP_temperature;BMP_pressure;BME280_temperature;BME280_humidity;BME280_pressure;Samples;Min_cycle;Max_cycle;Signal;HPM_P1;HPM_P2
2023/06/07 00:00:08;;;;;;;16.73;7.05;;;;;;;;;;5028479;28;20697;-70
2023/06/07 00:02:33;;;;;;;16.48;6.78;;;;;;;;;;5031102;28;20304;-69
2023/06/07 00:04:58;;;;;;;18.13;7.03;;;;;;;;;;5027978;28;20221;-70
2023/06/07 00:07:24;;;;;;;15.63;7.15;;;;;;;;;;5016304;28;20230;-69
2023/06/07 00:09:50;;;;;;;17.05;7.32;;;;;;;;;;5023304;28;20739;-69
2023/06/07 00:12:15;;;;;;;25.30;7.68;;;;;;;;;;5025717;28;20244;-70
2023/06/07 00:14:40;;;;;;;20.38;7.18;;;;;;;;;;5024783;28;20206;-70
2023/06/07 00:17:08;;;;;;;14.73;6.72;;;;;;;;;;5023776;28;20294;-69
2023/06/07 00:19:34;;;;;;;19.30;7.80;;;;;;;;;;5028285;28;20224;-70
2023/06/07 00:22:01;;;;;;;19.70;7.63;;;;;;;;;;5023994;28;20662;-69
2023/06/07 00:24:27;;;;;;;18.00;7.60;;;;;;;;;;5024504;28;20201;-69
2023/06/07 00:26:52;;;;;;;16.38;7.00;;;;;;;;;;5029378;28;20194;-69
2023/06/07 00:29:18;;;;;;;14.57;6.78;;;;;;;;;;5026897;28;20201;-69
2023/06/07 00:31:43;;;;;;;21.45;7.80;;;;;;;;;;5028621;28;20240;-69
2023/06/07 00:34:09;;;;;;;20.52;8.50;;;;;;;;;;5030322;28;20573;-69
2023/06/07 00:36:34;;;;;;;14.63;7.30;;;;;;;;;;5023214;28;20194;-69
2023/06/07 00:38:59;;;;;;;21.02;7.95;;;;;;;;;;5022099;28;20219;-69
2023/06/07 00:41:25;;;;;;;20.60;7.57;;;;;;;;;;5027803;28;20275;-69
2023/06/07 00:43:50;;;;;;;19.05;7.70;;;;;;;;;;5026032;28;20239;-69
2023/06/07 00:46:21;;;;;;;14.98;7.43;;;;;;;;;;5017290;28;20224;-69
2023/06/07 00:48:48;;;;;;;17.17;7.97;;;;;;;;;;5029897;28;20680;-69
2023/06/07 00:51:14;;;;;;;19.33;7.80;;;;;;;;;;5016997;28;20197;-69
2023/06/07 00:53:42;;;;;;;19.85;8.00;;;;;;;;;;5027379;28;20190;-69
2023/06/07 00:56:08;;;;;;;17.23;7.97;;;;;;;;;;5031080;28;20197;-70
2023/06/07 00:58:34;;;;;;;19.42;8.35;;;;;;;;;;5032199;28;20729;-69
2023/06/07 01:01:00;;;;;;;22.83;8.90;;;;;;;;;;5028318;28;20577;-69
2023/06/07 01:03:27;;;;;;;14.85;7.47;;;;;;;;;;5030552;28;20674;-69
2023/06/07 01:05:53;;;;;;;19.15;8.10;;;;;;;;;;5039748;28;20202;-70
2023/06/07 01:08:20;;;;;;;19.25;7.90;;;;;;;;;;5029943;28;20269;-69
2023/06/07 01:10:46;;;;;;;15.55;7.93;;;;;;;;;;5028599;28;20174;-69
2023/06/07 01:13:13;;;;;;;24.05;8.00;;;;;;;;;;5026753;28;20190;-69
2023/06/07 01:15:39;;;;;;;18.27;9.07;;;;;;;;;;5023380;28;20663;-69
2023/06/07 01:18:05;;;;;;;20.20;8.05;;;;;;;;;;5026536;28;20182;-70
2023/06/07 01:20:33;;;;;;;18.98;8.60;;;;;;;;;;5027062;28;20708;-70
2023/06/07 01:23:03;;;;;;;19.83;8.32;;;;;;;;;;5025888;28;20626;-69
2023/06/07 01:25:28;;;;;;;20.05;9.02;;;;;;;;;;5029368;28;20209;-70
2023/06/07 01:27:56;;;;;;;18.17;8.95;;;;;;;;;;5028044;28;20276;-70
2023/06/07 01:30:23;;;;;;;15.85;8.23;;;;;;;;;;5023681;28;20842;-70
2023/06/07 01:32:50;;;;;;;19.45;8.57;;;;;;;;;;5025175;28;20654;-70
2023/06/07 01:35:16;;;;;;;20.20;8.40;;;;;;;;;;5034102;28;20198;-70
2023/06/07 01:37:45;;;;;;;15.55;8.55;;;;;;;;;;5027388;28;20291;-70
2023/06/07 01:40:12;;;;;;;18.63;9.23;;;;;;;;;;5025617;28;20225;-70
2023/06/07 01:42:38;;;;;;;19.92;8.95;;;;;;;;;;5023468;28;20213;-70
2023/06/07 01:45:05;;;;;;;17.95;8.30;;;;;;;;;;5025117;28;20197;-69
2023/06/07 01:47:31;;;;;;;23.95;9.02;;;;;;;;;;5022652;28;20244;-70
2023/06/07 01:49:57;;;;;;;21.58;9.10;;;;;;;;;;5023831;28;20217;-69
2023/06/07 01:52:23;;;;;;;23.67;8.95;;;;;;;;;;5030376;28;20700;-70
2023/06/07 01:54:49;;;;;;;24.67;9.57;;;;;;;;;;5029412;28;20259;-70
2023/06/07 01:57:33;;;;;;;19.08;8.93;;;;;;;;;;5017113;28;20195;-70
2023/06/07 02:00:23;;;;;;;17.73;8.55;;;;;;;;;;5020539;28;20266;-69
2023/06/07 02:02:59;;;;;;;26.88;8.55;;;;;;;;;;5024824;28;20186;-70
2023/06/07 02:05:47;;;;;;;14.55;8.82;;;;;;;;;;5028325;28;20196;-70
2023/06/07 02:08:31;;;;;;;17.98;8.20;;;;;;;;;;5018999;28;20693;-70
2023/06/07 02:10:58;;;;;;;16.88;8.13;;;;;;;;;;5030123;28;20197;-70
2023/06/07 02:13:25;;;;;;;22.85;8.93;;;;;;;;;;5027272;28;20621;-69
2023/06/07 02:15:50;;;;;;;21.40;9.02;;;;;;;;;;5029190;28;20186;-70
2023/06/07 02:18:19;;;;;;;19.85;8.35;;;;;;;;;;5025784;28;20205;-70
2023/06/07 02:20:44;;;;;;;18.10;8.98;;;;;;;;;;5023612;28;20213;-70
2023/06/07 02:23:10;;;;;;;18.75;8.20;;;;;;;;;;5026426;28;20277;-70
2023/06/07 02:25:35;;;;;;;19.17;8.95;;;;;;;;;;5028874;28;20224;-70
2023/06/07 02:28:02;;;;;;;20.23;8.60;;;;;;;;;;5022430;28;20706;-70
2023/06/07 02:30:27;;;;;;;17.48;8.07;;;;;;;;;;5020678;28;20202;-69
2023/06/07 02:32:54;;;;;;;21.15;8.18;;;;;;;;;;5026613;28;20230;-69
2023/06/07 02:35:21;;;;;;;20.83;9.02;;;;;;;;;;5027900;28;20182;-69
2023/06/07 02:37:46;;;;;;;18.13;7.47;;;;;;;;;;5028412;28;20197;-69
2023/06/07 02:40:13;;;;;;;17.95;8.70;;;;;;;;;;5031161;28;20229;-69
2023/06/07 02:42:46;;;;;;;23.52;8.93;;;;;;;;;;5028829;28;20571;-69
2023/06/07 02:45:13;;;;;;;25.23;8.50;;;;;;;;;;5034500;28;20653;-70
2023/06/07 02:47:38;;;;;;;18.20;8.43;;;;;;;;;;5036999;28;20196;-70
2023/06/07 02:50:05;;;;;;;19.38;8.15;;;;;;;;;;5019718;28;20547;-69
2023/06/07 02:52:30;;;;;;;21.98;8.73;;;;;;;;;;5029838;28;20533;-70
2023/06/07 02:54:55;;;;;;;20.60;8.55;;;;;;;;;;5028850;28;20221;-69
2023/06/07 02:57:21;;;;;;;20.38;8.45;;;;;;;;;;5024602;28;20196;-70
2023/06/07 02:59:48;;;;;;;22.80;9.00;;;;;;;;;;5033417;28;20209;-70
2023/06/07 03:02:13;;;;;;;17.67;8.55;;;;;;;;;;5029682;28;20201;-70
2023/06/07 03:04:40;;;;;;;20.50;8.52;;;;;;;;;;5029915;28;20193;-69
2023/06/07 03:07:06;;;;;;;17.08;8.13;;;;;;;;;;5037571;28;20216;-70
2023/06/07 03:09:31;;;;;;;21.35;8.63;;;;;;;;;;5033684;28;21495;-70
2023/06/07 03:11:57;;;;;;;20.17;8.52;;;;;;;;;;5029481;28;20464;-70
2023/06/07 03:14:23;;;;;;;20.77;8.27;;;;;;;;;;5021739;28;20209;-70
2023/06/07 03:16:48;;;;;;;20.17;8.38;;;;;;;;;;5027575;28;20780;-69
2023/06/07 03:19:14;;;;;;;23.13;9.07;;;;;;;;;;5023479;28;20217;-70
2023/06/07 03:21:44;;;;;;;18.77;8.18;;;;;;;;;;5023462;28;20292;-69
2023/06/07 03:24:10;;;;;;;24.98;8.35;;;;;;;;;;5027619;28;20666;-70
2023/06/07 03:26:36;;;;;;;17.52;9.05;;;;;;;;;;5022442;28;20685;-69
2023/06/07 03:29:02;;;;;;;23.33;8.63;;;;;;;;;;5026666;28;20198;-70
2023/06/07 03:31:28;;;;;;;17.40;7.35;;;;;;;;;;5028030;28;20301;-70
2023/06/07 03:33:54;;;;;;;24.48;8.30;;;;;;;;;;5026833;28;20329;-69
2023/06/07 03:36:20;;;;;;;21.27;8.20;;;;;;;;;;5028088;28;20653;-70
2023/06/07 03:38:46;;;;;;;18.17;8.18;;;;;;;;;;5022178;28;20186;-70
2023/06/07 03:41:12;;;;;;;22.45;8.90;;;;;;;;;;5027286;28;20288;-69
2023/06/07 03:43:37;;;;;;;19.00;7.90;;;;;;;;;;5027498;28;20194;-70
2023/06/07 03:46:02;;;;;;;20.58;7.30;;;;;;;;;;5024707;28;20205;-70
2023/06/07 03:48:28;;;;;;;16.48;7.68;;;;;;;;;;5026898;28;20378;-69
2023/06/07 03:50:53;;;;;;;16.02;7.72;;;;;;;;;;5018730;28;20538;-69
2023/06/07 03:53:18;;;;;;;24.45;7.68;;;;;;;;;;5007254;28;20265;-69
2023/06/07 03:55:47;;;;;;;21.25;8.02;;;;;;;;;;5013058;28;20195;-69
2023/06/07 03:58:13;;;;;;;21.55;8.00;;;;;;;;;;5026712;28;20190;-69
2023/06/07 04:00:38;;;;;;;16.48;7.35;;;;;;;;;;5024829;28;20585;-69
2023/06/07 04:03:03;;;;;;;17.52;7.20;;;;;;;;;;5026201;28;20221;-69
2023/06/07 04:05:29;;;;;;;18.13;7.53;;;;;;;;;;5027488;28;20202;-69
2023/06/07 04:07:59;;;;;;;26.10;8.80;;;;;;;;;;5026147;28;20296;-70
2023/06/07 04:10:24;;;;;;;19.63;7.13;;;;;;;;;;5028158;28;20277;-70
2023/06/07 04:12:50;;;;;;;15.80;7.35;;;;;;;;;;5025586;28;20750;-70
2023/06/07 04:15:15;;;;;;;15.60;7.75;;;;;;;;;;5022776;28;20218;-69
2023/06/07 04:17:41;;;;;;;20.90;8.15;;;;;;;;;;5042115;28;20189;-69
2023/06/07 04:20:07;;;;;;;21.27;8.32;;;;;;;;;;5019381;28;20243;-70
2023/06/07 04:22:35;;;;;;;16.95;7.05;;;;;;;;;;5025216;28;20218;-70
2023/06/07 04:25:01;;;;;;;21.67;8.35;;;;;;;;;;5019135;28;20260;-70
2023/06/07 04:27:29;;;;;;;25.42;7.55;;;;;;;;;;5026611;28;20715;-70
2023/06/07 04:29:55;;;;;;;17.15;7.75;;;;;;;;;;5020031;28;20256;-70
2023/06/07 04:32:20;;;;;;;19.95;7.25;;;;;;;;;;5031018;28;20186;-70
2023/06/07 04:34:46;;;;;;;21.75;7.45;;;;;;;;;;5021658;28;20285;-69
2023/06/07 04:37:12;;;;;;;19.85;8.05;;;;;;;;;;5026529;28;20204;-70
2023/06/07 04:39:40;;;;;;;18.80;7.82;;;;;;;;;;5025118;28;20249;-70
2023/06/07 04:42:07;;;;;;;16.70;6.45;;;;;;;;;;5027829;28;20627;-71
2023/06/07 04:44:37;;;;;;;21.42;7.45;;;;;;;;;;5020266;28;20626;-70
2023/06/07 04:47:03;;;;;;;17.55;7.10;;;;;;;;;;5024930;28;20197;-69
2023/06/07 04:49:29;;;;;;;15.73;6.82;;;;;;;;;;5038424;28;20623;-70
2023/06/07 04:51:55;;;;;;;18.52;7.25;;;;;;;;;;5019658;28;20192;-70
2023/06/07 04:54:20;;;;;;;20.85;7.45;;;;;;;;;;5022079;28;20202;-70
2023/06/07 04:56:46;;;;;;;25.45;7.65;;;;;;;;;;5023431;28;20185;-70
2023/06/07 04:59:12;;;;;;;29.00;7.97;;;;;;;;;;5032633;28;20386;-69
2023/06/07 05:01:38;;;;;;;18.98;6.82;;;;;;;;;;5020553;28;20202;-70
2023/06/07 05:04:03;;;;;;;18.67;7.55;;;;;;;;;;5023940;28;20540;-70
2023/06/07 05:06:30;;;;;;;24.42;8.27;;;;;;;;;;5022388;28;20222;-69
2023/06/07 05:08:56;;;;;;;17.73;7.07;;;;;;;;;;5024106;28;20652;-69
2023/06/07 05:11:21;;;;;;;23.20;8.40;;;;;;;;;;5015455;28;20185;-70
2023/06/07 05:13:47;;;;;;;22.65;7.90;;;;;;;;;;5024352;28;20272;-70
2023/06/07 05:16:15;;;;;;;21.90;7.00;;;;;;;;;;5029118;28;20313;-70
2023/06/07 05:18:42;;;;;;;19.88;7.22;;;;;;;;;;5024214;28;20202;-71
2023/06/07 05:21:08;;;;;;;17.10;7.90;;;;;;;;;;5022964;28;20206;-70
2023/06/07 05:23:33;;;;;;;28.05;8.30;;;;;;;;;;5031258;28;20723;-69
2023/06/07 05:25:59;;;;;;;28.27;7.03;;;;;;;;;;5028094;28;20188;-70
2023/06/07 05:28:24;;;;;;;19.35;7.13;;;;;;;;;;5018581;28;20189;-71
2023/06/07 05:30:50;;;;;;;24.55;7.68;;;;;;;;;;5028861;28;20178;-71
2023/06/07 05:33:15;;;;;;;18.95;7.65;;;;;;;;;;5029551;28;20202;-72
2023/06/07 05:35:45;;;;;;;20.83;7.88;;;;;;;;;;5024146;28;20694;-70
2023/06/07 05:38:11;;;;;;;20.15;7.97;;;;;;;;;;5024871;28;20198;-70
2023/06/07 05:40:36;;;;;;;19.52;7.63;;;;;;;;;;5028917;28;20237;-71
2023/06/07 05:43:02;;;;;;;17.13;7.63;;;;;;;;;;5029551;28;20714;-71
2023/06/07 05:45:27;;;;;;;23.77;7.68;;;;;;;;;;5023866;28;20637;-70
2023/06/07 05:47:52;;;;;;;19.27;7.65;;;;;;;;;;5020487;28;20203;-70
2023/06/07 05:50:20;;;;;;;22.88;7.63;;;;;;;;;;5028660;28;20212;-69
2023/06/07 05:52:46;;;;;;;20.50;7.82;;;;;;;;;;5027852;28;20213;-70
2023/06/07 05:55:11;;;;;;;18.95;7.85;;;;;;;;;;5026229;28;20190;-71
2023/06/07 05:57:37;;;;;;;25.05;8.13;;;;;;;;;;5024999;28;20183;-70
2023/06/07 06:00:10;;;;;;;22.00;8.15;;;;;;;;;;5029140;28;20200;-70
2023/06/07 06:02:37;;;;;;;20.65;8.18;;;;;;;;;;5027339;28;20321;-70
2023/06/07 06:05:03;;;;;;;19.67;7.97;;;;;;;;;;5022494;28;20248;-71
2023/06/07 06:07:29;;;;;;;18.67;8.85;;;;;;;;;;5021947;28;20193;-71
2023/06/07 06:09:54;;;;;;;21.63;9.00;;;;;;;;;;5030098;28;20186;-70
2023/06/07 06:12:20;;;;;;;17.50;8.52;;;;;;;;;;5030380;28;20221;-72
2023/06/07 06:14:45;;;;;;;22.23;8.82;;;;;;;;;;5021817;28;20198;-70
2023/06/07 06:17:10;;;;;;;21.70;9.02;;;;;;;;;;5033299;28;20227;-70
2023/06/07 06:19:36;;;;;;;28.33;9.35;;;;;;;;;;5022504;28;20224;-70
2023/06/07 06:22:01;;;;;;;18.65;8.65;;;;;;;;;;5032285;28;20209;-70
2023/06/07 06:24:26;;;;;;;21.67;9.18;;;;;;;;;;5022911;28;20187;-70
2023/06/07 06:26:52;;;;;;;19.95;8.93;;;;;;;;;;5032755;28;20567;-71
2023/06/07 06:29:17;;;;;;;23.60;8.52;;;;;;;;;;5028860;28;20498;-72
2023/06/07 06:31:43;;;;;;;16.90;7.70;;;;;;;;;;5035478;28;20189;-70
2023/06/07 06:34:09;;;;;;;22.77;8.68;;;;;;;;;;5045502;28;20652;-70
2023/06/07 06:36:34;;;;;;;19.30;8.77;;;;;;;;;;5029457;28;20182;-71
2023/06/07 06:39:00;;;;;;;19.98;8.55;;;;;;;;;;5032204;28;20198;-70
2023/06/07 06:41:25;;;;;;;20.60;8.35;;;;;;;;;;5020361;28;20313;-70
2023/06/07 06:43:51;;;;;;;16.92;8.38;;;;;;;;;;5029989;28;20202;-70
2023/06/07 06:46:16;;;;;;;23.70;9.00;;;;;;;;;;5022832;28;20262;-70
2023/06/07 06:48:42;;;;;;;20.70;8.48;;;;;;;;;;5030331;28;20695;-70
2023/06/07 06:51:07;;;;;;;23.50;8.65;;;;;;;;;;5022477;28;20332;-70
2023/06/07 06:53:33;;;;;;;22.73;8.95;;;;;;;;;;5038136;28;20697;-72
2023/06/07 06:55:58;;;;;;;16.63;7.63;;;;;;;;;;5037971;28;20243;-71
2023/06/07 06:58:23;;;;;;;18.20;7.93;;;;;;;;;;5026407;28;20194;-70
2023/06/07 07:00:49;;;;;;;19.33;7.80;;;;;;;;;;5019626;28;20218;-70
2023/06/07 07:03:15;;;;;;;19.98;8.02;;;;;;;;;;5013445;28;20198;-70
2023/06/07 07:05:40;;;;;;;15.75;7.40;;;;;;;;;;5019423;28;20670;-71
2023/06/07 07:08:06;;;;;;;21.25;7.78;;;;;;;;;;5023676;28;20627;-71
2023/06/07 07:10:32;;;;;;;16.17;7.22;;;;;;;;;;5032601;28;20194;-70
2023/06/07 07:12:57;;;;;;;18.60;7.07;;;;;;;;;;5019649;28;20766;-70
2023/06/07 07:15:23;;;;;;;17.55;7.57;;;;;;;;;;5017583;28;20271;-70
2023/06/07 07:17:49;;;;;;;16.10;7.55;;;;;;;;;;5024624;28;20240;-70
2023/06/07 07:20:16;;;;;;;19.48;7.70;;;;;;;;;;5039901;28;20213;-70
2023/06/07 07:22:43;;;;;;;22.55;8.43;;;;;;;;;;5039614;28;20752;-71
2023/06/07 07:25:10;;;;;;;20.58;7.70;;;;;;;;;;5036235;28;20608;-70
2023/06/07 07:27:35;;;;;;;18.05;7.80;;;;;;;;;;5027017;28;20698;-70
2023/06/07 07:30:01;;;;;;;17.48;7.45;;;;;;;;;;5024979;28;20217;-70
2023/06/07 07:32:26;;;;;;;18.75;6.60;;;;;;;;;;5030083;28;20265;-71
2023/06/07 07:34:52;;;;;;;20.95;7.18;;;;;;;;;;5031170;28;20308;-69
2023/06/07 07:37:19;;;;;;;17.85;7.38;;;;;;;;;;5020467;28;20195;-70
2023/06/07 07:39:45;;;;;;;17.10;6.35;;;;;;;;;;5019761;28;20709;-70
2023/06/07 07:42:10;;;;;;;13.98;6.80;;;;;;;;;;5033632;28;20255;-71
2023/06/07 07:44:36;;;;;;;13.45;6.63;;;;;;;;;;5026979;28;20190;-70
2023/06/07 07:47:02;;;;;;;17.30;7.18;;;;;;;;;;5023497;28;20661;-71
2023/06/07 07:49:28;;;;;;;16.48;6.50;;;;;;;;;;5027924;28;20205;-70
2023/06/07 07:51:53;;;;;;;14.57;6.00;;;;;;;;;;5030659;28;20369;-71
2023/06/07 07:54:18;;;;;;;21.00;6.57;;;;;;;;;;5038594;28;20196;-71
2023/06/07 07:56:44;;;;;;;19.88;6.90;;;;;;;;;;5027414;28;20191;-69
2023/06/07 07:59:12;;;;;;;19.50;6.82;;;;;;;;;;5039574;28;20557;-72
2023/06/07 08:01:37;;;;;;;16.15;6.93;;;;;;;;;;5026532;28;20265;-70
2023/06/07 08:04:03;;;;;;;18.77;6.82;;;;;;;;;;5039840;28;20202;-69
2023/06/07 08:06:28;;;;;;;15.15;6.93;;;;;;;;;;5031903;28;20193;-69
2023/06/07 08:08:54;;;;;;;15.07;6.70;;;;;;;;;;5026453;28;20205;-69
2023/06/07 08:11:21;;;;;;;16.92;6.00;;;;;;;;;;5027381;28;20272;-69
2023/06/07 08:13:46;;;;;;;14.88;6.50;;;;;;;;;;5014053;28;20332;-69
2023/06/07 08:16:11;;;;;;;17.77;6.80;;;;;;;;;;5024803;28;20264;-69
2023/06/07 08:18:38;;;;;;;17.15;6.38;;;;;;;;;;5014633;28;20618;-69
2023/06/07 08:21:03;;;;;;;14.68;6.70;;;;;;;;;;5026748;28;20224;-69
2023/06/07 08:23:29;;;;;;;16.88;7.20;;;;;;;;;;5008553;28;20175;-69
2023/06/07 08:25:57;;;;;;;14.00;6.60;;;;;;;;;;5020910;28;20260;-69
2023/06/07 08:28:23;;;;;;;16.83;6.65;;;;;;;;;;5037478;28;20244;-70
2023/06/07 08:30:49;;;;;;;17.13;6.15;;;;;;;;;;5022632;28;20645;-69
2023/06/07 08:33:14;;;;;;;18.38;7.25;;;;;;;;;;5026711;28;20276;-70
2023/06/07 08:35:39;;;;;;;14.60;6.03;;;;;;;;;;5025684;28;20212;-70
2023/06/07 08:38:05;;;;;;;14.82;6.22;;;;;;;;;;5037789;28;20689;-70
2023/06/07 08:40:32;;;;;;;17.95;6.82;;;;;;;;;;5034541;28;20233;-69
2023/06/07 08:42:57;;;;;;;14.52;6.22;;;;;;;;;;5026722;28;20202;-70
2023/06/07 08:45:22;;;;;;;18.73;6.50;;;;;;;;;;5032146;28;20571;-69
2023/06/07 08:47:50;;;;;;;14.38;6.18;;;;;;;;;;5030964;28;20660;-70
2023/06/07 08:50:17;;;;;;;19.05;6.50;;;;;;;;;;5011005;28;20205;-70
2023/06/07 08:52:48;;;;;;;14.90;7.10;;;;;;;;;;5027512;28;20241;-70
2023/06/07 08:55:13;;;;;;;18.20;6.47;;;;;;;;;;5025410;28;20500;-70
2023/06/07 08:57:40;;;;;;;16.60;6.53;;;;;;;;;;5019865;28;20195;-70
2023/06/07 09:00:08;;;;;;;15.75;6.20;;;;;;;;;;5022324;28;20202;-69
2023/06/07 09:02:33;;;;;;;19.45;6.13;;;;;;;;;;5033466;28;20673;-69
2023/06/07 09:05:01;;;;;;;20.38;6.35;;;;;;;;;;5031358;28;20297;-69
2023/06/07 09:07:27;;;;;;;16.85;5.63;;;;;;;;;;5027894;28;20182;-69
2023/06/07 09:09:52;;;;;;;20.13;6.55;;;;;;;;;;5024481;28;20209;-70
2023/06/07 09:12:17;;;;;;;19.52;6.53;;;;;;;;;;5031242;28;20269;-69
2023/06/07 09:14:46;;;;;;;24.08;6.20;;;;;;;;;;5014528;28;20312;-70
2023/06/07 09:17:12;;;;;;;11.13;5.57;;;;;;;;;;5022229;28;20190;-70
2023/06/07 09:19:39;;;;;;;17.75;5.53;;;;;;;;;;5039571;28;20194;-70
2023/06/07 09:22:07;;;;;;;16.13;5.25;;;;;;;;;;5029742;28;20206;-69
2023/06/07 09:24:33;;;;;;;13.05;4.75;;;;;;;;;;5029295;28;20834;-69
2023/06/07 09:27:03;;;;;;;12.88;5.25;;;;;;;;;;5022739;28;20194;-70
2023/06/07 09:29:29;;;;;;;16.63;5.82;;;;;;;;;;5017562;28;20194;-69
2023/06/07 09:32:16;;;;;;;19.65;5.60;;;;;;;;;;5017937;28;20564;-70
2023/06/07 09:34:41;;;;;;;15.65;5.47;;;;;;;;;;5015679;28;20191;-71
2023/06/07 09:37:07;;;;;;;17.23;5.43;;;;;;;;;;5020961;28;20561;-69
2023/06/07 09:39:32;;;;;;;16.48;6.30;;;;;;;;;;5014794;28;20205;-70
2023/06/07 09:41:58;;;;;;;16.60;6.57;;;;;;;;;;5021270;28;20703;-69
2023/06/07 09:44:25;;;;;;;16.70;5.35;;;;;;;;;;5041592;28;20196;-70
2023/06/07 09:46:51;;;;;;;15.70;4.97;;;;;;;;;;5031486;28;20194;-70
2023/06/07 09:49:42;;;;;;;16.08;5.50;;;;;;;;;;5025282;28;20198;-70
2023/06/07 09:52:13;;;;;;;13.32;5.90;;;;;;;;;;5027003;28;20291;-70
2023/06/07 09:54:48;;;;;;;15.07;5.88;;;;;;;;;;5016317;28;20214;-70
2023/06/07 09:57:25;;;;;;;15.63;5.38;;;;;;;;;;5032398;28;20299;-69
2023/06/07 10:00:13;;;;;;;14.65;5.43;;;;;;;;;;5026068;28;20186;-68
2023/06/07 10:02:43;;;;;;;16.05;5.32;;;;;;;;;;5019631;28;20202;-71
2023/06/07 10:05:15;;;;;;;16.92;6.07;;;;;;;;;;5020000;28;20218;-70
2023/06/07 10:07:46;;;;;;;15.57;5.32;;;;;;;;;;5038063;28;20191;-70
2023/06/07 10:10:17;;;;;;;12.02;4.70;;;;;;;;;;5027814;28;20738;-69
2023/06/07 10:12:44;;;;;;;15.70;5.35;;;;;;;;;;5031514;28;20576;-69
2023/06/07 10:15:12;;;;;;;14.95;5.80;;;;;;;;;;5032767;28;20194;-70
2023/06/07 10:17:48;;;;;;;12.65;5.15;;;;;;;;;;5028864;28;20187;-70
2023/06/07 10:20:24;;;;;;;10.75;5.15;;;;;;;;;;5017348;28;20233;-71
2023/06/07 10:22:51;;;;;;;16.35;5.30;;;;;;;;;;5015120;28;20198;-71
2023/06/07 10:25:23;;;;;;;14.75;5.30;;;;;;;;;;5020523;28;20190;-70
2023/06/07 10:28:02;;;;;;;19.23;5.70;;;;;;;;;;5023465;28;20194;-70
2023/06/07 10:30:31;;;;;;;12.38;6.07;;;;;;;;;;5040505;28;20661;-70
2023/06/07 10:32:58;;;;;;;17.00;6.28;;;;;;;;;;5024735;28;20178;-70
2023/06/07 10:35:25;;;;;;;15.88;5.95;;;;;;;;;;5025682;28;20193;-71
2023/06/07 10:37:53;;;;;;;12.35;5.38;;;;;;;;;;5019091;28;20240;-71
2023/06/07 10:40:20;;;;;;;15.48;5.50;;;;;;;;;;5018530;28;20729;-69
2023/06/07 10:42:46;;;;;;;12.63;5.35;;;;;;;;;;5015620;28;20245;-71
2023/06/07 10:45:16;;;;;;;12.63;5.07;;;;;;;;;;5042047;28;20489;-69
2023/06/07 10:47:42;;;;;;;12.27;4.55;;;;;;;;;;5012245;28;20198;-69
2023/06/07 10:50:28;;;;;;;13.30;5.18;;;;;;;;;;5017745;28;20239;-69
2023/06/07 10:53:01;;;;;;;17.50;5.50;;;;;;;;;;5019216;28;20198;-69
2023/06/07 10:55:30;;;;;;;12.90;6.28;;;;;;;;;;5022057;28;20487;-69
2023/06/07 10:57:55;;;;;;;16.73;5.40;;;;;;;;;;5031828;28;20604;-69
2023/06/07 11:00:25;;;;;;;14.35;6.05;;;;;;;;;;5024670;28;20199;-69
2023/06/07 11:03:12;;;;;;;15.05;4.82;;;;;;;;;;5036569;28;20221;-69
2023/06/07 11:05:53;;;;;;;13.05;5.25;;;;;;;;;;5036807;28;20181;-69
2023/06/07 11:08:26;;;;;;;15.93;5.85;;;;;;;;;;5041632;28;20272;-70
2023/06/07 11:10:58;;;;;;;12.25;4.97;;;;;;;;;;5027246;28;20603;-71
2023/06/07 11:13:25;;;;;;;13.00;5.32;;;;;;;;;;5021646;28;20198;-70
2023/06/07 11:15:50;;;;;;;14.73;5.90;;;;;;;;;;5016726;28;20190;-70
2023/06/07 11:18:16;;;;;;;14.77;5.13;;;;;;;;;;5017302;28;20189;-70
2023/06/07 11:20:44;;;;;;;11.75;4.95;;;;;;;;;;5019215;28;20182;-70
2023/06/07 11:23:26;;;;;;;14.70;5.35;;;;;;;;;;5026493;28;20244;-70
2023/06/07 11:26:11;;;;;;;12.82;4.88;;;;;;;;;;5022742;28;20599;-70
2023/06/07 11:28:41;;;;;;;15.10;4.95;;;;;;;;;;5025755;28;20186;-70
2023/06/07 11:31:13;;;;;;;13.68;6.03;;;;;;;;;;5031977;28;20279;-70
2023/06/07 11:33:42;;;;;;;11.13;5.15;;;;;;;;;;5018791;28;20195;-70
2023/06/07 11:36:09;;;;;;;11.70;4.68;;;;;;;;;;5015216;28;20187;-69
2023/06/07 11:38:34;;;;;;;12.25;5.20;;;;;;;;;;5023478;28;20270;-69
2023/06/07 11:41:00;;;;;;;11.23;4.60;;;;;;;;;;5016849;28;20320;-69
2023/06/07 11:43:27;;;;;;;15.80;4.88;;;;;;;;;;5025412;28;20282;-70
2023/06/07 11:45:57;;;;;;;15.38;5.13;;;;;;;;;;5030043;28;20529;-69
2023/06/07 11:48:29;;;;;;;11.65;4.95;;;;;;;;;;5029094;28;20205;-69
2023/06/07 11:50:55;;;;;;;12.95;4.68;;;;;;;;;;5030154;28;20261;-69
2023/06/07 11:53:21;;;;;;;11.70;4.90;;;;;;;;;;5031716;28;20198;-70
2023/06/07 11:55:47;;;;;;;13.70;5.15;;;;;;;;;;5025908;28;20610;-71
2023/06/07 11:58:12;;;;;;;14.75;5.35;;;;;;;;;;5013061;28;20248;-69
2023/06/07 12:00:38;;;;;;;13.35;5.30;;;;;;;;;;5027928;28;20717;-70
2023/06/07 12:03:05;;;;;;;16.13;5.38;;;;;;;;;;5028557;28;20248;-68
2023/06/07 12:05:31;;;;;;;11.43;4.82;;;;;;;;;;5023134;28;20294;-70
2023/06/07 12:08:07;;;;;;;7.93;4.38;;;;;;;;;;5029264;28;20222;-69
2023/06/07 12:10:34;;;;;;;11.35;4.50;;;;;;;;;;5028087;28;20269;-69
2023/06/07 12:13:15;;;;;;;11.35;4.90;;;;;;;;;;5023903;28;20190;-70
2023/06/07 12:15:48;;;;;;;10.07;4.65;;;;;;;;;;5009657;28;20258;-69
2023/06/07 12:18:16;;;;;;;12.80;4.32;;;;;;;;;;5021802;28;20195;-68
2023/06/07 12:20:45;;;;;;;10.73;4.70;;;;;;;;;;5021012;28;20186;-70
2023/06/07 12:23:12;;;;;;;13.65;4.93;;;;;;;;;;5029785;28;20299;-70
2023/06/07 12:25:39;;;;;;;9.80;4.55;;;;;;;;;;5024505;28;20709;-69
2023/06/07 12:28:06;;;;;;;11.45;5.13;;;;;;;;;;5012847;28;20313;-69
2023/06/07 12:30:40;;;;;;;15.73;5.07;;;;;;;;;;5028582;28;20616;-69
2023/06/07 12:33:12;;;;;;;16.20;5.22;;;;;;;;;;5021734;28;20194;-69
2023/06/07 12:35:39;;;;;;;11.63;4.68;;;;;;;;;;5023599;28;20241;-69
2023/06/07 12:38:05;;;;;;;9.80;4.60;;;;;;;;;;5037552;28;20228;-68
2023/06/07 12:40:31;;;;;;;10.02;4.32;;;;;;;;;;5016416;28;20226;-71
2023/06/07 12:42:56;;;;;;;10.10;4.53;;;;;;;;;;5022472;28;20216;-69
2023/06/07 12:45:22;;;;;;;13.30;5.30;;;;;;;;;;5013051;28;20178;-69
2023/06/07 12:47:47;;;;;;;12.70;4.70;;;;;;;;;;5024238;28;20194;-69
2023/06/07 12:50:12;;;;;;;11.82;4.57;;;;;;;;;;5042345;28;20231;-69
2023/06/07 12:52:38;;;;;;;11.73;4.78;;;;;;;;;;5039825;28;20214;-69
2023/06/07 12:55:05;;;;;;;10.68;4.95;;;;;;;;;;5027904;28;20217;-69
2023/06/07 12:57:30;;;;;;;12.90;5.00;;;;;;;;;;5026078;28;20190;-69
2023/06/07 12:59:55;;;;;;;13.88;5.07;;;;;;;;;;5025398;28;20543;-70
2023/06/07 13:02:21;;;;;;;14.73;4.72;;;;;;;;;;5027221;28;20229;-69
2023/06/07 13:04:47;;;;;;;13.45;5.50;;;;;;;;;;5025509;28;20202;-70
2023/06/07 13:07:12;;;;;;;7.78;4.32;;;;;;;;;;5023975;28;20182;-71
2023/06/07 13:09:37;;;;;;;11.25;4.50;;;;;;;;;;5023686;28;20194;-69
2023/06/07 13:12:04;;;;;;;11.63;4.90;;;;;;;;;;5019713;28;20183;-70
2023/06/07 13:14:31;;;;;;;8.75;4.75;;;;;;;;;;5018690;28;20196;-69
2023/06/07 13:16:56;;;;;;;10.20;4.70;;;;;;;;;;5012565;28;20494;-69
2023/06/07 13:19:22;;;;;;;9.82;4.60;;;;;;;;;;5023637;28;20195;-69
2023/06/07 13:21:48;;;;;;;9.93;4.55;;;;;;;;;;5024792;28;20198;-69
2023/06/07 13:24:13;;;;;;;11.18;4.95;;;;;;;;;;5022334;28;20733;-69
2023/06/07 13:26:39;;;;;;;9.52;4.70;;;;;;;;;;5027997;28;20189;-70
2023/06/07 13:29:04;;;;;;;9.82;4.20;;;;;;;;;;5025655;28;20226;-69
2023/06/07 13:31:30;;;;;;;10.63;4.25;;;;;;;;;;5016426;28;20191;-69
2023/06/07 13:33:55;;;;;;;8.63;4.28;;;;;;;;;;5019514;28;20554;-69
2023/06/07 13:36:22;;;;;;;9.10;4.30;;;;;;;;;;5015578;28;20685;-69
2023/06/07 13:38:48;;;;;;;12.15;3.92;;;;;;;;;;5038330;28;20201;-69
2023/06/07 13:41:14;;;;;;;7.10;4.03;;;;;;;;;;5033544;28;20229;-71
2023/06/07 13:43:40;;;;;;;12.18;4.53;;;;;;;;;;5027616;28;20236;-69
2023/06/07 13:46:06;;;;;;;11.63;3.95;;;;;;;;;;5028670;28;20194;-69
2023/06/07 13:48:31;;;;;;;10.98;4.10;;;;;;;;;;5027176;28;20598;-69
2023/06/07 13:50:57;;;;;;;9.68;4.13;;;;;;;;;;5030640;28;20523;-70
2023/06/07 13:53:23;;;;;;;10.70;4.47;;;;;;;;;;5028057;28;20269;-70
2023/06/07 13:55:50;;;;;;;8.07;4.40;;;;;;;;;;5027423;28;20669;-69
2023/06/07 13:58:16;;;;;;;12.00;4.50;;;;;;;;;;5027158;28;20198;-69
2023/06/07 14:00:42;;;;;;;8.40;4.40;;;;;;;;;;5033061;28;20706;-69
2023/06/07 14:03:08;;;;;;;7.00;3.78;;;;;;;;;;5019010;28;20197;-70
2023/06/07 14:05:34;;;;;;;9.95;3.80;;;;;;;;;;5021986;28;20221;-70
2023/06/07 14:08:01;;;;;;;8.27;3.88;;;;;;;;;;5015774;28;20210;-69
2023/06/07 14:10:27;;;;;;;8.75;4.35;;;;;;;;;;5026239;28;20245;-71
2023/06/07 14:12:53;;;;;;;9.27;4.00;;;;;;;;;;5015480;28;20270;-70
2023/06/07 14:15:18;;;;;;;11.63;4.05;;;;;;;;;;5029727;28;20273;-70
2023/06/07 14:17:43;;;;;;;8.15;3.53;;;;;;;;;;5029747;28;20509;-70
2023/06/07 14:20:09;;;;;;;6.07;3.60;;;;;;;;;;5029200;28;20190;-71
2023/06/07 14:22:35;;;;;;;7.03;4.05;;;;;;;;;;5020980;28;20676;-70
2023/06/07 14:25:00;;;;;;;9.68;3.95;;;;;;;;;;5029554;28;20268;-70
2023/06/07 14:27:25;;;;;;;7.28;4.03;;;;;;;;;;5029621;28;20221;-69
2023/06/07 14:29:51;;;;;;;10.10;4.20;;;;;;;;;;5028420;28;20186;-69